createdAt,value
2023-08-07T00:01:11.137Z,100.00
2023-08-07T00:03:37.557Z,100.00
2023-08-07T00:06:03.987Z,100.00
2023-08-07T00:08:31.663Z,100.00
2023-08-07T00:11:08.356Z,100.00
2023-08-07T00:13:34.890Z,100.00
2023-08-07T00:16:01.372Z,100.00
2023-08-07T00:18:29.713Z,100.00
2023-08-07T00:20:56.281Z,100.00
2023-08-07T00:23:22.651Z,100.00
2023-08-07T00:25:49.009Z,100.00
2023-08-07T00:28:15.382Z,100.00
2023-08-07T00:30:41.745Z,100.00
2023-08-07T00:33:08.144Z,100.00
2023-08-07T00:35:34.507Z,100.00
2023-08-07T00:38:00.919Z,100.00
2023-08-07T00:40:27.280Z,100.00
2023-08-07T00:42:53.650Z,100.00
2023-08-07T00:45:20.067Z,100.00
2023-08-07T00:47:46.553Z,100.00
2023-08-07T00:50:13.299Z,100.00
2023-08-07T00:52:39.803Z,100.00
2023-08-07T00:55:06.536Z,100.00
2023-08-07T00:57:33.546Z,100.00
2023-08-07T01:00:00.360Z,100.00
2023-08-07T01:02:26.874Z,100.00
2023-08-07T01:04:53.796Z,100.00
2023-08-07T01:07:20.437Z,100.00
2023-08-07T01:09:47.069Z,100.00
2023-08-07T01:12:19.844Z,100.00
2023-08-07T01:15:10.945Z,100.00
2023-08-07T01:17:38.266Z,100.00
2023-08-07T01:20:05.388Z,100.00
2023-08-07T01:22:31.799Z,100.00
2023-08-07T01:24:58.180Z,100.00
2023-08-07T01:27:38.646Z,100.00
2023-08-07T01:30:11.357Z,100.00
2023-08-07T01:32:38.004Z,100.00
2023-08-07T01:35:07.110Z,100.00
2023-08-07T01:37:37.663Z,100.00
2023-08-07T01:40:06.433Z,100.00
2023-08-07T01:42:33.473Z,100.00
2023-08-07T01:44:59.879Z,100.00
2023-08-07T01:47:26.366Z,100.00
2023-08-07T01:49:52.910Z,100.00
2023-08-07T01:52:19.716Z,100.00
2023-08-07T01:54:46.187Z,100.00
2023-08-07T01:57:12.629Z,100.00
2023-08-07T01:59:39.356Z,100.00
2023-08-07T02:02:05.889Z,100.00
2023-08-07T02:04:32.369Z,100.00
2023-08-07T02:06:58.746Z,100.00
2023-08-07T02:09:25.125Z,100.00
2023-08-07T02:11:51.484Z,100.00
2023-08-07T02:14:18.278Z,100.00
2023-08-07T02:16:44.736Z,100.00
2023-08-07T02:19:11.147Z,100.00
2023-08-07T02:21:37.576Z,100.00
2023-08-07T02:24:04.161Z,100.00
2023-08-07T02:26:30.490Z,100.00
2023-08-07T02:28:56.869Z,100.00
2023-08-07T02:31:23.289Z,100.00
2023-08-07T02:33:49.798Z,100.00
2023-08-07T02:36:16.156Z,100.00
2023-08-07T02:38:42.582Z,100.00
2023-08-07T02:41:08.942Z,100.00
2023-08-07T02:43:35.491Z,100.00
2023-08-07T02:46:01.885Z,100.00
2023-08-07T02:48:28.254Z,100.00
2023-08-07T02:50:54.673Z,100.00
2023-08-07T02:53:21.060Z,100.00
2023-08-07T02:55:47.436Z,100.00
2023-08-07T02:58:13.882Z,100.00
2023-08-07T03:00:40.250Z,100.00
2023-08-07T03:03:06.621Z,100.00
2023-08-07T03:05:33.099Z,100.00
2023-08-07T03:07:59.506Z,100.00
2023-08-07T03:10:26.956Z,100.00
2023-08-07T03:12:53.520Z,100.00
2023-08-07T03:15:19.859Z,100.00
2023-08-07T03:17:46.242Z,100.00
2023-08-07T03:20:12.972Z,100.00
2023-08-07T03:22:39.404Z,100.00
2023-08-07T03:25:06.285Z,100.00
2023-08-07T03:27:32.674Z,100.00
2023-08-07T03:29:59.069Z,100.00
2023-08-07T03:32:25.481Z,100.00
2023-08-07T03:34:51.973Z,100.00
2023-08-07T03:37:18.317Z,100.00
2023-08-07T03:39:48.892Z,100.00
2023-08-07T03:42:18.285Z,100.00
2023-08-07T03:44:44.734Z,100.00
2023-08-07T03:47:11.175Z,100.00
2023-08-07T03:49:37.631Z,100.00
2023-08-07T03:52:04.355Z,100.00
2023-08-07T03:54:30.786Z,100.00
2023-08-07T03:56:57.353Z,100.00
2023-08-07T03:59:24.140Z,100.00
2023-08-07T04:01:50.533Z,100.00
2023-08-07T04:04:16.872Z,100.00
2023-08-07T04:06:44.880Z,100.00
2023-08-07T04:09:11.350Z,100.00
2023-08-07T04:11:37.968Z,100.00
2023-08-07T04:14:04.985Z,100.00
2023-08-07T04:16:32.332Z,100.00
2023-08-07T04:18:58.765Z,100.00
2023-08-07T04:21:25.203Z,100.00
2023-08-07T04:23:51.608Z,100.00
2023-08-07T04:26:18.014Z,100.00
2023-08-07T04:28:44.373Z,100.00
2023-08-07T04:31:10.764Z,100.00
2023-08-07T04:33:37.318Z,100.00
2023-08-07T04:36:03.994Z,100.00
2023-08-07T04:38:30.428Z,100.00
2023-08-07T04:40:56.852Z,100.00
2023-08-07T04:43:23.332Z,100.00
2023-08-07T04:45:50.120Z,100.00
2023-08-07T04:48:16.835Z,100.00
2023-08-07T04:50:43.219Z,100.00
2023-08-07T04:53:09.854Z,100.00
2023-08-07T04:55:36.900Z,100.00
2023-08-07T04:58:03.438Z,100.00
2023-08-07T05:00:30.292Z,100.00
2023-08-07T05:02:56.980Z,100.00
2023-08-07T05:05:24.329Z,100.00
2023-08-07T05:07:50.994Z,100.00
2023-08-07T05:10:17.460Z,100.00
2023-08-07T05:12:43.847Z,100.00
2023-08-07T05:15:10.546Z,100.00
2023-08-07T05:17:37.088Z,100.00
2023-08-07T05:20:03.789Z,100.00
2023-08-07T05:22:30.497Z,100.00
2023-08-07T05:24:56.837Z,100.00
2023-08-07T05:27:23.149Z,100.00
2023-08-07T05:29:49.576Z,100.00
2023-08-07T05:32:15.962Z,100.00
2023-08-07T05:34:42.716Z,100.00
2023-08-07T05:37:11.510Z,100.00
2023-08-07T05:39:37.891Z,100.00
2023-08-07T05:42:04.599Z,100.00
2023-08-07T05:44:31.022Z,100.00
2023-08-07T05:46:57.394Z,100.00
2023-08-07T05:49:25.895Z,100.00
2023-08-07T05:51:53.092Z,100.00
2023-08-07T05:54:19.497Z,100.00
2023-08-07T05:56:48.148Z,100.00
2023-08-07T05:59:14.663Z,100.00
2023-08-07T06:01:42.069Z,100.00
2023-08-07T06:04:09.898Z,100.00
2023-08-07T06:06:36.855Z,100.00
2023-08-07T06:09:07.384Z,100.00
2023-08-07T06:11:33.865Z,100.00
2023-08-07T06:14:00.244Z,100.00
2023-08-07T06:16:27.083Z,100.00
2023-08-07T06:18:53.544Z,100.00
2023-08-07T06:21:21.304Z,100.00
2023-08-07T06:23:48.043Z,100.00
2023-08-07T06:26:14.565Z,100.00
2023-08-07T06:28:40.926Z,100.00
2023-08-07T06:31:08.892Z,100.00
2023-08-07T06:33:35.303Z,100.00
2023-08-07T06:36:02.566Z,100.00
2023-08-07T06:38:29.087Z,100.00
2023-08-07T06:40:55.540Z,100.00
2023-08-07T06:43:22.334Z,100.00
2023-08-07T06:45:52.423Z,100.00
2023-08-07T06:48:19.374Z,100.00
2023-08-07T06:50:47.799Z,100.00
2023-08-07T06:53:14.188Z,100.00
2023-08-07T06:55:42.457Z,100.00
2023-08-07T06:58:09.140Z,100.00
2023-08-07T07:00:36.506Z,100.00
2023-08-07T07:03:03.644Z,100.00
2023-08-07T07:05:31.381Z,100.00
2023-08-07T07:07:58.669Z,100.00
2023-08-07T07:10:25.031Z,100.00
2023-08-07T07:12:51.407Z,100.00
2023-08-07T07:15:17.858Z,100.00
2023-08-07T07:17:44.231Z,100.00
2023-08-07T07:20:12.049Z,100.00
2023-08-07T07:22:38.383Z,100.00
2023-08-07T07:25:05.302Z,100.00
2023-08-07T07:27:31.636Z,100.00
2023-08-07T07:29:58.049Z,100.00
2023-08-07T07:32:25.322Z,100.00
2023-08-07T07:34:51.716Z,100.00
2023-08-07T07:37:18.147Z,100.00
2023-08-07T07:39:44.806Z,100.00
2023-08-07T07:42:12.214Z,100.00
2023-08-07T07:44:39.772Z,100.00
2023-08-07T07:47:06.745Z,100.00
2023-08-07T07:49:34.102Z,100.00
2023-08-07T07:52:01.065Z,100.00
2023-08-07T07:54:29.337Z,100.00
2023-08-07T07:56:55.872Z,100.00
2023-08-07T07:59:22.434Z,100.00
2023-08-07T08:01:48.826Z,100.00
2023-08-07T08:04:15.588Z,100.00
2023-08-07T08:06:42.132Z,100.00
2023-08-07T08:09:10.699Z,100.00
2023-08-07T08:11:37.053Z,100.00
2023-08-07T08:14:03.407Z,100.00
2023-08-07T08:16:29.754Z,100.00
2023-08-07T08:18:56.141Z,100.00
2023-08-07T08:21:22.507Z,100.00
2023-08-07T08:23:48.877Z,100.00
2023-08-07T08:26:15.256Z,100.00
2023-08-07T08:28:41.585Z,100.00
2023-08-07T08:31:08.036Z,100.00
2023-08-07T08:33:34.432Z,100.00
2023-08-07T08:36:00.755Z,100.00
2023-08-07T08:38:33.600Z,100.00
2023-08-07T08:41:03.589Z,100.00
2023-08-07T08:43:35.193Z,100.00
2023-08-07T08:46:02.394Z,100.00
2023-08-07T08:48:32.452Z,100.00
2023-08-07T08:50:59.694Z,100.00
2023-08-07T08:53:26.503Z,100.00
2023-08-07T08:55:53.341Z,100.00
2023-08-07T08:58:21.148Z,100.00
2023-08-07T09:00:48.714Z,100.00
2023-08-07T09:03:15.295Z,100.00
2023-08-07T09:05:42.758Z,100.00
2023-08-07T09:08:10.430Z,100.00
2023-08-07T09:10:37.953Z,100.00
2023-08-07T09:13:06.588Z,100.00
2023-08-07T09:15:34.129Z,100.00
2023-08-07T09:18:01.956Z,100.00
2023-08-07T09:20:29.482Z,100.00
2023-08-07T09:22:56.035Z,100.00
2023-08-07T09:25:32.568Z,100.00
2023-08-07T09:27:59.003Z,100.00
2023-08-07T09:30:30.273Z,100.00
2023-08-07T09:33:03.585Z,100.00
2023-08-07T09:35:32.324Z,100.00
2023-08-07T09:37:59.311Z,100.00
2023-08-07T09:40:25.747Z,100.00
2023-08-07T09:42:53.841Z,100.00
2023-08-07T09:45:22.008Z,100.00
2023-08-07T09:47:57.903Z,100.00
2023-08-07T09:50:24.473Z,100.00
2023-08-07T09:52:50.895Z,100.00
2023-08-07T09:55:17.245Z,100.00
2023-08-07T09:57:45.935Z,100.00
2023-08-07T10:00:16.344Z,100.00
2023-08-07T10:02:47.127Z,100.00
2023-08-07T10:05:16.684Z,100.00
2023-08-07T10:07:43.326Z,100.00
2023-08-07T10:10:11.124Z,100.00
2023-08-07T10:12:39.018Z,100.00
2023-08-07T10:15:06.098Z,100.00
2023-08-07T10:17:33.185Z,100.00
2023-08-07T10:19:59.826Z,100.00
2023-08-07T10:22:28.132Z,100.00
2023-08-07T10:24:57.161Z,100.00
2023-08-07T10:27:26.214Z,100.00
2023-08-07T10:29:54.578Z,100.00
2023-08-07T10:32:22.920Z,100.00
2023-08-07T10:34:52.600Z,100.00
2023-08-07T10:37:41.911Z,100.00
2023-08-07T10:40:13.819Z,100.00
2023-08-07T10:43:14.481Z,100.00
2023-08-07T10:45:40.890Z,100.00
2023-08-07T10:48:08.877Z,100.00
2023-08-07T10:50:49.646Z,100.00
2023-08-07T10:53:30.239Z,100.00
2023-08-07T10:55:59.824Z,100.00
2023-08-07T10:58:34.948Z,100.00
2023-08-07T11:01:20.604Z,100.00
2023-08-07T11:04:10.873Z,100.00
2023-08-07T11:06:38.779Z,100.00
2023-08-07T11:09:08.138Z,100.00
2023-08-07T11:11:42.261Z,81.53
2023-08-07T11:14:19.772Z,73.47
2023-08-07T11:16:48.740Z,71.37
2023-08-07T11:19:17.096Z,70.26
2023-08-07T11:21:44.031Z,68.34
2023-08-07T11:24:14.463Z,66.00
2023-08-07T11:26:41.054Z,66.71
2023-08-07T11:29:08.086Z,66.93
2023-08-07T11:31:34.708Z,67.02
2023-08-07T11:34:03.692Z,69.52
2023-08-07T11:36:30.157Z,67.91
2023-08-07T11:38:56.973Z,65.35
2023-08-07T11:41:23.381Z,64.92
2023-08-07T11:43:49.782Z,65.11
2023-08-07T11:46:16.854Z,66.50
2023-08-07T11:48:44.869Z,67.53
2023-08-07T11:51:11.752Z,68.54
2023-08-07T11:53:40.598Z,69.09
2023-08-07T11:56:10.420Z,70.45
2023-08-07T11:58:41.830Z,67.80
2023-08-07T12:01:17.377Z,68.94
2023-08-07T12:04:09.424Z,67.33
2023-08-07T12:06:36.973Z,67.32
2023-08-07T12:09:06.381Z,66.71
2023-08-07T12:11:32.980Z,66.34
2023-08-07T12:14:02.576Z,66.05
2023-08-07T12:16:33.608Z,66.80
2023-08-07T12:19:00.186Z,65.23
2023-08-07T12:21:27.234Z,66.48
2023-08-07T12:23:56.871Z,65.85
2023-08-07T12:26:23.670Z,64.57
2023-08-07T12:28:50.778Z,65.89
2023-08-07T12:31:18.745Z,65.96
2023-08-07T12:33:45.358Z,65.42
2023-08-07T12:38:41.997Z,67.05
2023-08-07T12:41:44.135Z,64.07
2023-08-07T12:43:54.813Z,65.03
2023-08-07T12:48:52.547Z,63.86
2023-08-07T12:51:19.119Z,64.19
2023-08-07T12:53:46.262Z,65.59
2023-08-07T12:56:12.692Z,60.88
2023-08-07T12:58:41.024Z,62.13
2023-08-07T13:01:11.536Z,61.53
2023-08-07T13:03:37.997Z,63.81
2023-08-07T13:06:07.550Z,64.92
2023-08-07T13:08:34.626Z,65.59
2023-08-07T13:11:01.134Z,66.74
2023-08-07T13:13:29.023Z,65.54
2023-08-07T13:15:55.863Z,65.53
2023-08-07T13:18:22.517Z,65.31
2023-08-07T13:20:48.866Z,66.46
2023-08-07T13:23:15.485Z,64.86
2023-08-07T13:25:42.155Z,65.19
2023-08-07T13:28:08.524Z,63.63
2023-08-07T13:30:37.169Z,64.51
2023-08-07T13:33:04.196Z,64.98
2023-08-07T13:35:30.592Z,61.84
2023-08-07T13:37:56.995Z,62.69
2023-08-07T13:40:23.426Z,60.03
2023-08-07T13:42:49.758Z,58.71
2023-08-07T13:45:16.265Z,57.48
2023-08-07T13:47:43.167Z,57.03
2023-08-07T13:50:13.616Z,56.13
2023-08-07T13:52:40.110Z,55.75
2023-08-07T13:55:07.133Z,56.41
2023-08-07T13:57:34.329Z,56.08
2023-08-07T14:00:00.730Z,56.13
2023-08-07T14:02:27.273Z,54.55
2023-08-07T14:04:53.686Z,55.72
2023-08-07T14:07:20.056Z,50.84
2023-08-07T14:09:46.463Z,50.79
2023-08-07T14:12:12.809Z,50.64
2023-08-07T14:14:39.233Z,50.78
2023-08-07T14:17:06.043Z,48.99
2023-08-07T14:19:32.418Z,48.02
2023-08-07T14:21:58.854Z,46.68
2023-08-07T14:24:25.270Z,47.52
2023-08-07T14:26:51.667Z,48.66
2023-08-07T14:29:18.119Z,49.66
2023-08-07T14:31:44.489Z,50.67
2023-08-07T14:34:10.839Z,51.16
2023-08-07T14:36:37.867Z,50.54
2023-08-07T14:39:04.336Z,50.35
2023-08-07T14:41:30.732Z,51.72
2023-08-07T14:43:57.455Z,51.60
2023-08-07T14:46:24.765Z,51.57
2023-08-07T14:48:51.181Z,51.95
2023-08-07T14:51:17.581Z,51.39
2023-08-07T14:53:43.919Z,51.13
2023-08-07T14:56:10.305Z,52.05
2023-08-07T14:58:36.651Z,51.70
2023-08-07T15:01:03.092Z,51.24
2023-08-07T15:03:29.554Z,51.47
2023-08-07T15:05:55.991Z,52.49
2023-08-07T15:08:22.377Z,51.24
2023-08-07T15:10:48.777Z,49.04
2023-08-07T15:13:15.156Z,49.99
2023-08-07T15:15:41.504Z,49.57
2023-08-07T15:18:07.919Z,47.60
2023-08-07T15:20:37.334Z,45.71
2023-08-07T15:23:04.404Z,45.49
2023-08-07T15:25:30.793Z,46.96
2023-08-07T15:28:01.106Z,45.52
2023-08-07T15:30:29.995Z,45.28
2023-08-07T15:32:57.180Z,45.20
2023-08-07T15:35:23.598Z,44.28
2023-08-07T15:37:49.987Z,42.56
2023-08-07T15:40:16.403Z,42.63
2023-08-07T15:42:46.691Z,41.98
2023-08-07T15:45:14.015Z,42.79
2023-08-07T15:47:40.515Z,43.75
2023-08-07T15:50:07.560Z,44.11
2023-08-07T15:52:33.974Z,45.06
2023-08-07T15:55:00.389Z,45.19
2023-08-07T15:57:27.891Z,45.13
2023-08-07T15:59:54.229Z,46.67
2023-08-07T16:02:20.591Z,46.70
2023-08-07T16:04:46.997Z,47.33
2023-08-07T16:07:13.442Z,46.89
2023-08-07T16:09:39.776Z,47.67
2023-08-07T16:12:06.419Z,48.59
2023-08-07T16:14:35.832Z,49.86
2023-08-07T16:17:03.634Z,49.24
2023-08-07T16:19:30.026Z,49.45
2023-08-07T16:21:56.400Z,48.12
2023-08-07T16:24:22.808Z,46.90
2023-08-07T16:26:49.147Z,46.16
2023-08-07T16:29:15.516Z,46.03
2023-08-07T16:31:41.945Z,46.84
2023-08-07T16:34:09.274Z,45.75
2023-08-07T16:36:36.655Z,45.33
2023-08-07T16:39:03.497Z,45.88
2023-08-07T16:41:29.978Z,44.96
2023-08-07T16:43:56.460Z,44.79
2023-08-07T16:46:22.926Z,44.78
2023-08-07T16:48:49.361Z,46.69
2023-08-07T16:51:16.472Z,47.03
2023-08-07T16:53:44.178Z,48.51
2023-08-07T16:56:12.773Z,48.54
2023-08-07T16:58:41.012Z,49.22
2023-08-07T17:01:08.163Z,48.61
2023-08-07T17:03:34.654Z,47.02
2023-08-07T17:06:01.086Z,47.63
2023-08-07T17:08:27.434Z,48.22
2023-08-07T17:10:53.822Z,47.38
2023-08-07T17:13:20.868Z,48.42
2023-08-07T17:15:47.466Z,48.12
2023-08-07T17:18:16.266Z,49.07
2023-08-07T17:20:42.654Z,48.45
2023-08-07T17:23:09.126Z,46.97
2023-08-07T17:25:35.508Z,47.83
2023-08-07T17:28:02.017Z,47.31
2023-08-07T17:30:28.452Z,47.68
2023-08-07T17:32:54.976Z,47.81
2023-08-07T17:35:22.725Z,48.57
2023-08-07T17:37:50.194Z,49.43
2023-08-07T17:40:16.953Z,49.94
2023-08-07T17:42:43.346Z,49.36
2023-08-07T17:45:09.953Z,49.88
2023-08-07T17:47:36.439Z,50.13
2023-08-07T17:50:03.574Z,50.62
2023-08-07T17:52:30.725Z,51.06
2023-08-07T17:54:57.178Z,52.12
2023-08-07T17:57:23.622Z,51.51
2023-08-07T17:59:51.834Z,51.73
2023-08-07T18:02:18.151Z,53.63
2023-08-07T18:04:44.585Z,53.96
2023-08-07T18:07:10.948Z,54.93
2023-08-07T18:09:37.371Z,55.46
2023-08-07T18:12:04.564Z,55.10
2023-08-07T18:14:30.926Z,56.71
2023-08-07T18:16:57.446Z,57.34
2023-08-07T18:19:23.980Z,57.92
2023-08-07T18:21:50.764Z,59.22
2023-08-07T18:24:18.948Z,60.23
2023-08-07T18:26:45.724Z,60.77
2023-08-07T18:29:16.627Z,61.68
2023-08-07T18:31:43.004Z,63.00
2023-08-07T18:34:10.208Z,64.30
2023-08-07T18:36:39.337Z,64.99
2023-08-07T18:39:06.462Z,64.24
2023-08-07T18:41:33.528Z,64.40
2023-08-07T18:44:01.812Z,65.05
2023-08-07T18:46:28.293Z,65.26
2023-08-07T18:48:55.485Z,65.30
2023-08-07T18:51:22.425Z,66.09
2023-08-07T18:53:48.792Z,67.03
2023-08-07T18:56:15.329Z,67.83
2023-08-07T18:58:43.116Z,68.88
2023-08-07T19:01:09.610Z,69.34
2023-08-07T19:03:36.100Z,71.34
2023-08-07T19:06:06.139Z,72.59
2023-08-07T19:08:34.550Z,73.85
2023-08-07T19:11:01.350Z,76.24
2023-08-07T19:13:27.840Z,77.48
2023-08-07T19:15:56.212Z,78.14
2023-08-07T19:18:23.086Z,74.48
2023-08-07T19:20:49.558Z,75.20
2023-08-07T19:23:15.967Z,75.14
2023-08-07T19:25:42.688Z,77.18
2023-08-07T19:28:09.331Z,78.98
2023-08-07T19:30:36.627Z,82.03
2023-08-07T19:33:03.140Z,84.03
2023-08-07T19:35:29.492Z,85.78
2023-08-07T19:37:55.851Z,86.88
2023-08-07T19:40:25.827Z,86.65
2023-08-07T19:42:52.726Z,86.36
2023-08-07T19:45:19.283Z,86.55
2023-08-07T19:47:50.560Z,88.61
2023-08-07T19:50:17.421Z,86.96
2023-08-07T19:52:43.798Z,84.37
2023-08-07T19:55:10.747Z,85.70
2023-08-07T19:57:38.709Z,84.83
2023-08-07T20:00:06.422Z,86.47
2023-08-07T20:02:34.128Z,87.98
2023-08-07T20:05:00.506Z,89.51
2023-08-07T20:07:26.857Z,89.89
2023-08-07T20:09:53.235Z,90.04
2023-08-07T20:12:21.683Z,91.28
2023-08-07T20:14:48.295Z,98.72
2023-08-07T20:17:14.810Z,94.71
2023-08-07T20:19:41.574Z,95.69
2023-08-07T20:22:07.974Z,96.40
2023-08-07T20:24:34.339Z,99.21
2023-08-07T20:27:01.024Z,99.05
2023-08-07T20:29:28.377Z,100.00
2023-08-07T20:31:54.811Z,100.00
2023-08-07T20:34:21.219Z,100.00
2023-08-07T20:36:47.757Z,100.00
2023-08-07T20:39:14.740Z,100.00
2023-08-07T20:41:41.134Z,100.00
2023-08-07T20:44:07.566Z,100.00
2023-08-07T20:46:34.085Z,100.00
2023-08-07T20:49:00.515Z,100.00
2023-08-07T20:51:26.982Z,100.00
2023-08-07T20:53:53.421Z,100.00
2023-08-07T20:56:19.871Z,100.00
2023-08-07T20:58:46.410Z,100.00
2023-08-07T21:01:12.859Z,100.00
2023-08-07T21:03:39.209Z,100.00
2023-08-07T21:06:05.599Z,100.00
2023-08-07T21:08:31.943Z,100.00
2023-08-07T21:10:59.355Z,100.00
2023-08-07T21:13:25.771Z,100.00
2023-08-07T21:15:52.195Z,100.00
2023-08-07T21:18:18.721Z,100.00
2023-08-07T21:20:45.208Z,100.00
2023-08-07T21:23:13.501Z,100.00
2023-08-07T21:25:40.114Z,100.00
2023-08-07T21:28:06.568Z,100.00
2023-08-07T21:30:33.065Z,100.00
2023-08-07T21:32:59.496Z,100.00
2023-08-07T21:35:26.799Z,100.00
2023-08-07T21:37:53.846Z,100.00
2023-08-07T21:40:23.151Z,100.00
2023-08-07T21:42:49.471Z,100.00
2023-08-07T21:45:15.984Z,100.00
2023-08-07T21:47:44.353Z,100.00
2023-08-07T21:50:13.222Z,100.00
2023-08-07T21:52:39.654Z,100.00
2023-08-07T21:55:06.584Z,100.00
2023-08-07T21:57:33.981Z,100.00
2023-08-07T22:00:00.470Z,100.00
2023-08-07T22:02:27.203Z,100.00
2023-08-07T22:04:53.725Z,100.00
2023-08-07T22:07:20.062Z,100.00
2023-08-07T22:09:46.426Z,100.00
2023-08-07T22:12:12.775Z,100.00
2023-08-07T22:14:39.137Z,100.00
2023-08-07T22:17:05.713Z,100.00
2023-08-07T22:19:32.123Z,100.00
2023-08-07T22:21:58.662Z,100.00
2023-08-07T22:24:25.230Z,100.00
2023-08-07T22:26:51.648Z,100.00
2023-08-07T22:29:18.041Z,100.00
2023-08-07T22:31:44.435Z,100.00
2023-08-07T22:34:10.816Z,100.00
2023-08-07T22:36:37.253Z,100.00
2023-08-07T22:39:03.805Z,100.00
2023-08-07T22:41:33.279Z,100.00
2023-08-07T22:44:00.835Z,100.00
2023-08-07T22:46:27.631Z,100.00
2023-08-07T22:48:54.276Z,100.00
2023-08-07T22:51:20.607Z,100.00
2023-08-07T22:53:46.969Z,100.00
2023-08-07T22:56:13.393Z,100.00
2023-08-07T22:58:39.720Z,100.00
2023-08-07T23:01:06.172Z,100.00
2023-08-07T23:03:32.575Z,100.00
2023-08-07T23:05:58.982Z,100.00
2023-08-07T23:08:25.452Z,100.00
2023-08-07T23:10:54.029Z,100.00
2023-08-07T23:13:20.377Z,100.00
2023-08-07T23:15:47.934Z,100.00
2023-08-07T23:18:14.387Z,100.00
2023-08-07T23:20:40.780Z,100.00
2023-08-07T23:23:07.135Z,100.00
2023-08-07T23:25:33.499Z,100.00
2023-08-07T23:27:59.828Z,100.00
2023-08-07T23:30:26.212Z,100.00
2023-08-07T23:32:52.592Z,100.00
2023-08-07T23:35:19.085Z,100.00
2023-08-07T23:37:45.472Z,100.00
2023-08-07T23:40:12.272Z,100.00
2023-08-07T23:42:38.638Z,100.00
2023-08-07T23:45:05.461Z,100.00
2023-08-07T23:47:31.864Z,100.00
2023-08-07T23:49:58.366Z,100.00
2023-08-07T23:52:24.789Z,100.00
2023-08-07T23:54:51.127Z,100.00
2023-08-07T23:57:17.526Z,100.00
2023-08-07T23:59:43.926Z,100.00
